Time;durP1;ratioP1;P1;durP2;ratioP2;P2;SDS_P1;SDS_P2;PMS_P1;PMS_P2;Temp;Humidity;BMP_temperature;BMP_pressure;BME280_temperature;BME280_humidity;BME280_pressure;Samples;Min_cycle;Max_cycle;Signal;HPM_P1;HPM_P2
2022/05/02 00:01:03;;;;;;;7.60;4.97;;;;;;;4.51;nan;101470.53;4974900;28;20036;-79
2022/05/02 00:03:31;;;;;;;6.60;4.50;;;;;;;4.48;nan;101474.84;4991541;28;21648;-80
2022/05/02 00:05:58;;;;;;;5.90;4.73;;;;;;;4.47;nan;101481.81;4990970;28;20057;-80
2022/05/02 00:08:26;;;;;;;5.57;4.70;;;;;;;4.43;nan;101472.13;4959386;28;20455;-80
2022/05/02 00:10:53;;;;;;;5.17;4.17;;;;;;;4.39;nan;101486.03;4971041;28;20038;-80
2022/05/02 00:13:20;;;;;;;7.77;5.43;;;;;;;4.33;nan;101479.78;4988586;28;20045;-81
2022/05/02 00:15:47;;;;;;;6.10;4.43;;;;;;;4.29;nan;101491.03;4993376;28;20402;-80
2022/05/02 00:18:14;;;;;;;6.90;4.83;;;;;;;4.27;nan;101490.13;4974849;28;20042;-81
2022/05/02 00:20:41;;;;;;;6.10;4.67;;;;;;;4.15;nan;101491.69;4987135;28;20030;-80
2022/05/02 00:23:09;;;;;;;7.10;5.07;;;;;;;4.04;nan;101493.22;4988018;28;20397;-80
2022/05/02 00:25:37;;;;;;;8.63;5.30;;;;;;;4.00;nan;101493.09;4970029;28;20034;-82
2022/05/02 00:28:04;;;;;;;8.40;4.47;;;;;;;3.94;nan;101484.28;4956063;28;20049;-80
2022/05/02 00:30:31;;;;;;;6.47;4.50;;;;;;;3.84;nan;101481.47;4962517;28;20041;-80
2022/05/02 00:33:00;;;;;;;6.13;4.80;;;;;;;3.74;nan;101483.00;4967709;28;20402;-80
2022/05/02 00:35:27;;;;;;;6.47;4.40;;;;;;;3.68;nan;101480.25;4962232;28;20571;-81
2022/05/02 00:37:54;;;;;;;5.80;4.53;;;;;;;3.59;nan;101480.97;5008723;28;20038;-81
2022/05/02 00:40:21;;;;;;;7.63;4.50;;;;;;;3.58;nan;101475.69;4959054;28;20100;-80
2022/05/02 00:42:49;;;;;;;9.60;5.17;;;;;;;3.59;nan;101482.69;4976229;28;20426;-80
2022/05/02 00:45:17;;;;;;;6.27;4.50;;;;;;;3.53;nan;101482.56;4972201;28;20039;-80
2022/05/02 00:47:51;;;;;;;7.83;5.40;;;;;;;3.55;nan;101473.91;4982143;28;20049;-80
2022/05/02 00:50:38;;;;;;;6.43;4.57;;;;;;;3.50;nan;101469.44;4970155;28;20042;-80
2022/05/02 00:53:12;;;;;;;6.80;4.87;;;;;;;3.45;nan;101460.59;4972266;28;20041;-81
2022/05/02 00:55:39;;;;;;;6.20;4.72;;;;;;;3.39;nan;101469.22;4969373;28;20034;-82
2022/05/02 00:58:07;;;;;;;7.87;5.40;;;;;;;3.35;nan;101464.75;4964294;28;20046;-80
2022/05/02 01:00:37;;;;;;;7.77;4.73;;;;;;;3.34;nan;101460.38;4975740;28;20034;-79
2022/05/02 01:03:06;;;;;;;6.27;4.50;;;;;;;3.45;nan;101463.22;4958494;28;20598;-80
2022/05/02 01:08:26;;;;;;;8.57;4.90;;;;;;;3.15;nan;101459.09;4991591;28;20042;-80
2022/05/02 01:10:54;;;;;;;6.37;5.07;;;;;;;3.10;nan;101458.97;4991167;28;20042;-80
2022/05/02 01:13:37;;;;;;;6.87;5.43;;;;;;;3.13;nan;101458.19;4956981;28;20049;-80
2022/05/02 01:16:15;;;;;;;7.50;4.60;;;;;;;3.06;nan;101461.50;4972976;28;20034;-82
2022/05/02 01:18:43;;;;;;;8.33;4.90;;;;;;;2.98;nan;101458.72;4957338;28;20038;-81
2022/05/02 01:21:14;;;;;;;7.70;5.30;;;;;;;2.90;nan;101465.50;4967971;28;20037;-80
2022/05/02 01:23:47;;;;;;;8.20;5.40;;;;;;;2.88;nan;101463.69;4969204;28;20064;-80
2022/05/02 01:26:14;;;;;;;7.23;4.60;;;;;;;2.77;nan;101460.81;4975435;28;20495;-80
2022/05/02 01:28:49;;;;;;;7.40;5.73;;;;;;;2.79;nan;101459.16;4972997;28;20046;-81
2022/05/02 01:31:18;;;;;;;6.20;5.23;;;;;;;2.76;nan;101452.09;4984130;28;20042;-80
2022/05/02 01:33:46;;;;;;;5.43;4.30;;;;;;;2.80;nan;101453.06;4983345;28;20049;-80
2022/05/02 01:36:13;;;;;;;7.53;5.13;;;;;;;2.80;nan;101450.47;4970276;28;20500;-81
2022/05/02 01:38:40;;;;;;;7.57;4.60;;;;;;;2.65;nan;101448.38;4960677;28;20045;-80
2022/05/02 01:41:07;;;;;;;7.53;4.87;;;;;;;2.57;nan;101444.69;4986134;28;20039;-80
2022/05/02 01:43:35;;;;;;;10.13;5.93;;;;;;;2.56;nan;101444.66;4989601;28;20046;-80
2022/05/02 01:46:04;;;;;;;8.33;5.10;;;;;;;2.65;nan;101447.47;4987558;28;20064;-80
2022/05/02 01:48:31;;;;;;;7.33;5.10;;;;;;;2.57;nan;101443.81;4974295;28;20046;-80
2022/05/02 01:50:59;;;;;;;7.77;5.27;;;;;;;2.53;nan;101438.53;4972181;28;20045;-81
2022/05/02 01:53:26;;;;;;;8.37;5.90;;;;;;;2.53;nan;101433.31;4971195;28;20049;-80
2022/05/02 01:55:53;;;;;;;7.60;5.10;;;;;;;2.41;nan;101433.00;4955566;28;20046;-81
2022/05/02 01:58:21;;;;;;;10.10;6.00;;;;;;;2.33;nan;101433.63;4956947;28;20052;-81
2022/05/02 02:00:48;;;;;;;7.70;5.27;;;;;;;2.21;nan;101429.00;4974678;28;20046;-80
2022/05/02 02:03:15;;;;;;;5.93;4.73;;;;;;;2.17;nan;101428.03;4955957;28;20065;-80
2022/05/02 02:05:51;;;;;;;9.30;5.23;;;;;;;2.18;nan;101426.31;4989180;28;20038;-82
2022/05/02 02:08:28;;;;;;;7.30;5.03;;;;;;;2.25;nan;101425.63;4951057;28;20108;-82
2022/05/02 02:10:58;;;;;;;6.30;4.83;;;;;;;2.23;nan;101422.97;4991512;28;20042;-81
2022/05/02 02:13:25;;;;;;;9.20;5.90;;;;;;;2.11;nan;101411.38;4970300;28;20037;-80
2022/05/02 02:15:52;;;;;;;6.50;4.83;;;;;;;2.07;nan;101415.59;4965126;28;20532;-81
2022/05/02 02:18:19;;;;;;;7.23;5.10;;;;;;;2.16;nan;101409.75;4989825;28;20502;-80
2022/05/02 02:20:48;;;;;;;8.13;4.87;;;;;;;2.19;nan;101413.34;4977673;28;20050;-80
2022/05/02 02:23:18;;;;;;;6.60;5.13;;;;;;;2.07;nan;101418.22;4977515;28;20049;-81
2022/05/02 02:25:46;;;;;;;7.47;4.70;;;;;;;1.87;nan;101420.31;4978564;28;20034;-82
2022/05/02 02:28:14;;;;;;;6.47;4.77;;;;;;;1.80;nan;101420.09;4978159;28;20129;-81
2022/05/02 02:30:42;;;;;;;6.63;4.80;;;;;;;1.80;nan;101405.34;4957964;28;20046;-78
2022/05/02 02:33:08;;;;;;;8.07;5.33;;;;;;;1.80;nan;101404.47;4986052;28;20038;-81
2022/05/02 02:35:35;;;;;;;8.77;5.80;;;;;;;1.85;nan;101413.25;4971061;28;20626;-80
2022/05/02 02:38:05;;;;;;;8.07;5.67;;;;;;;1.83;nan;101409.75;4973287;28;20064;-81
2022/05/02 02:40:32;;;;;;;6.97;4.60;;;;;;;1.83;nan;101414.94;4962459;28;20046;-81
2022/05/02 02:42:59;;;;;;;7.30;5.63;;;;;;;1.75;nan;101411.25;4964013;28;20044;-80
2022/05/02 02:45:26;;;;;;;6.90;4.93;;;;;;;1.62;nan;101416.16;4971331;28;20046;-81
2022/05/02 02:47:53;;;;;;;9.67;5.37;;;;;;;1.55;nan;101413.31;4990758;28;20038;-81
2022/05/02 02:50:20;;;;;;;7.80;5.47;;;;;;;1.54;nan;101409.84;4988732;28;20044;-82
2022/05/02 02:52:47;;;;;;;7.93;4.87;;;;;;;1.49;nan;101415.75;4955072;28;20131;-81
2022/05/02 02:55:14;;;;;;;8.20;5.43;;;;;;;1.47;nan;101422.63;4956640;28;20038;-80
2022/05/02 02:57:41;;;;;;;8.13;5.20;;;;;;;1.48;nan;101419.19;4971340;28;20500;-80
2022/05/02 03:00:09;;;;;;;8.83;5.10;;;;;;;1.42;nan;101418.16;4950545;28;20407;-80
2022/05/02 03:02:37;;;;;;;8.53;5.10;;;;;;;1.40;nan;101421.56;4988543;28;20170;-82
2022/05/02 03:07:50;;;;;;;7.67;5.63;;;;;;;1.51;nan;101420.13;4986494;28;20495;-81
2022/05/02 03:10:17;;;;;;;6.70;5.00;;;;;;;1.39;nan;101417.19;4960577;28;20046;-81
2022/05/02 03:12:45;;;;;;;8.97;4.97;;;;;;;1.29;nan;101418.66;4964999;28;20399;-80
2022/05/02 03:15:12;;;;;;;9.27;5.43;;;;;;;1.30;nan;101417.81;4987203;28;20213;-81
2022/05/02 03:17:39;;;;;;;8.13;5.37;;;;;;;1.20;nan;101414.91;4978387;28;20073;-81
2022/05/02 03:20:07;;;;;;;6.83;4.90;;;;;;;1.12;nan;101419.88;4968665;28;20038;-81
2022/05/02 03:22:34;;;;;;;8.07;5.13;;;;;;;1.07;nan;101419.72;4964942;28;20496;-80
2022/05/02 03:25:01;;;;;;;8.20;5.40;;;;;;;1.06;nan;101420.56;4981139;28;20049;-80
2022/05/02 03:27:28;;;;;;;8.30;5.30;;;;;;;1.05;nan;101425.75;4972142;28;20038;-81
2022/05/02 03:29:54;;;;;;;7.80;5.37;;;;;;;1.10;nan;101424.16;4971634;28;20047;-81
2022/05/02 03:32:22;;;;;;;5.70;4.63;;;;;;;1.05;nan;101416.22;4970625;28;20423;-81
2022/05/02 03:34:49;;;;;;;7.83;5.37;;;;;;;1.00;nan;101422.97;4969603;28;20050;-80
2022/05/02 03:37:16;;;;;;;6.83;5.73;;;;;;;1.05;nan;101415.31;4972430;28;20046;-82
2022/05/02 03:39:43;;;;;;;8.00;5.27;;;;;;;1.04;nan;101411.84;4953650;28;20041;-82
2022/05/02 03:42:10;;;;;;;6.43;4.93;;;;;;;0.98;nan;101424.66;4955505;28;20042;-82
2022/05/02 03:44:37;;;;;;;9.73;5.93;;;;;;;1.02;nan;101425.66;4946439;28;20047;-81
2022/05/02 03:47:04;;;;;;;9.23;5.53;;;;;;;1.09;nan;101425.88;4967435;28;20050;-81
2022/05/02 03:49:31;;;;;;;8.90;5.60;;;;;;;1.06;nan;101417.97;4972906;28;20046;-81
2022/05/02 03:51:58;;;;;;;8.10;5.50;;;;;;;1.00;nan;101420.38;4989291;28;20114;-81
2022/05/02 03:54:25;;;;;;;8.87;6.00;;;;;;;1.04;nan;101417.06;4965886;28;20035;-82
2022/05/02 03:56:58;;;;;;;7.20;5.20;;;;;;;1.09;nan;101418.09;4966542;28;20054;-82
2022/05/02 03:59:25;;;;;;;9.90;5.50;;;;;;;1.13;nan;101422.53;4972532;28;20034;-82
2022/05/02 04:01:52;;;;;;;7.53;4.83;;;;;;;1.16;nan;101418.25;4981068;28;20496;-81
2022/05/02 04:04:19;;;;;;;7.57;5.03;;;;;;;1.09;nan;101418.09;4970141;28;20050;-82
2022/05/02 04:06:48;;;;;;;8.27;5.67;;;;;;;1.04;nan;101424.84;4964673;28;20250;-81
2022/05/02 04:09:40;;;;;;;9.40;6.15;;;;;;;1.08;nan;101425.81;4960324;28;20047;-81
2022/05/02 04:12:08;;;;;;;12.40;6.10;;;;;;;1.16;nan;101420.84;4973934;28;20082;-81
2022/05/02 04:14:35;;;;;;;8.20;5.40;;;;;;;1.20;nan;101422.72;4968555;28;20053;-82
2022/05/02 04:17:02;;;;;;;9.33;5.27;;;;;;;1.21;nan;101419.28;4981001;28;20050;-81
2022/05/02 04:19:29;;;;;;;7.87;5.80;;;;;;;1.28;nan;101427.31;4969715;28;20034;-82
2022/05/02 04:21:56;;;;;;;5.73;4.80;;;;;;;1.37;nan;101427.59;4985876;28;20187;-82
2022/05/02 04:24:23;;;;;;;8.97;5.13;;;;;;;1.45;nan;101422.59;4987549;28;20038;-81
2022/05/02 04:26:49;;;;;;;8.70;5.50;;;;;;;1.48;nan;101430.47;4984129;28;20045;-81
2022/05/02 04:29:16;;;;;;;6.30;5.10;;;;;;;1.64;nan;101430.06;4951820;28;20046;-82
2022/05/02 04:31:43;;;;;;;7.63;6.00;;;;;;;1.84;nan;101421.91;4972994;28;20030;-81
2022/05/02 04:34:10;;;;;;;7.63;5.60;;;;;;;2.04;nan;101430.28;4970108;28;20031;-81
2022/05/02 04:36:37;;;;;;;7.77;4.90;;;;;;;2.10;nan;101420.91;4984982;28;20043;-81
2022/05/02 04:39:04;;;;;;;7.67;5.13;;;;;;;2.14;nan;101427.97;4985258;28;20393;-80
2022/05/02 04:41:31;;;;;;;6.80;5.37;;;;;;;2.29;nan;101430.09;4976949;23;20073;-79
2022/05/02 04:43:58;;;;;;;8.60;4.67;;;;;;;2.37;nan;101423.34;4976369;28;20038;-79
2022/05/02 04:46:26;;;;;;;10.80;5.27;;;;;;;2.49;nan;101423.63;4956826;28;20053;-79
2022/05/02 04:48:53;;;;;;;9.17;5.07;;;;;;;2.61;nan;101414.34;4949946;28;20061;-80
2022/05/02 04:51:20;;;;;;;12.23;6.27;;;;;;;2.68;nan;101417.13;4939807;28;20661;-80
2022/05/02 04:53:47;;;;;;;8.33;5.73;;;;;;;2.75;nan;101426.84;4968438;28;20034;-81
2022/05/02 04:56:14;;;;;;;9.03;6.30;;;;;;;2.90;nan;101423.72;4956633;28;20623;-81
2022/05/02 04:58:41;;;;;;;7.03;5.07;;;;;;;3.00;nan;101425.69;4947221;28;20039;-79
2022/05/02 05:01:08;;;;;;;8.53;6.00;;;;;;;3.13;nan;101428.59;4953835;28;20042;-80
2022/05/02 05:03:35;;;;;;;6.60;5.33;;;;;;;3.23;nan;101426.22;4953437;28;20038;-79
2022/05/02 05:06:02;;;;;;;6.93;5.13;;;;;;;3.34;nan;101432.53;4970427;28;20031;-80
2022/05/02 05:08:30;;;;;;;11.80;6.13;;;;;;;3.51;nan;101434.63;4952709;28;20023;-80
2022/05/02 05:11:36;;;;;;;8.73;5.97;;;;;;;3.70;nan;101422.81;4951898;29;20039;-79
2022/05/02 05:17:20;;;;;;;7.73;5.33;;;;;;;4.09;nan;101426.19;4965239;28;20094;-80
2022/05/02 05:20:13;;;;;;;8.37;5.37;;;;;;;4.23;nan;101423.81;4970126;28;20133;-81
2022/05/02 05:22:43;;;;;;;7.30;5.20;;;;;;;4.45;nan;101418.06;4970149;28;20110;-80
2022/05/02 05:25:29;;;;;;;6.90;5.10;;;;;;;4.60;nan;101419.19;4976255;28;20122;-79
2022/05/02 05:28:13;;;;;;;7.70;5.40;;;;;;;4.84;nan;101422.19;4969751;28;20101;-82
2022/05/02 05:30:44;;;;;;;6.82;4.88;;;;;;;4.98;nan;101417.16;4958868;28;20107;-81
2022/05/02 05:33:25;;;;;;;;;;;;;;;5.07;nan;101415.56;4949861;28;20126;-81
2022/05/02 05:36:01;;;;;;;7.73;5.07;;;;;;;5.27;nan;101421.06;4968010;28;20013;-78
2022/05/02 05:38:44;;;;;;;5.33;4.27;;;;;;;5.53;nan;101410.91;4967024;28;20122;-80
2022/05/02 05:41:36;;;;;;;7.00;4.80;;;;;;;5.77;nan;101405.06;4974077;28;20102;-80
2022/05/02 05:44:26;;;;;;;6.17;4.33;;;;;;;5.98;nan;101412.34;4939171;29;20099;-81
2022/05/02 05:47:05;;;;;;;6.67;4.70;;;;;;;6.28;nan;101411.72;4940281;29;20143;-82
2022/05/02 05:50:10;;;;;;;7.17;4.80;;;;;;;6.70;nan;101407.69;4945594;29;20114;-80
2022/05/02 05:52:46;;;;;;;5.03;3.75;;;;;;;7.00;nan;101404.41;4971280;28;20118;-82
2022/05/02 05:55:27;;;;;;;6.90;5.13;;;;;;;7.25;nan;101406.31;4984522;28;20113;-80
2022/05/02 05:58:12;;;;;;;5.10;4.13;;;;;;;7.40;nan;101405.50;4984932;28;20103;-77
2022/05/02 06:00:44;;;;;;;8.13;5.00;;;;;;;7.63;nan;101388.03;5000248;28;20113;-81
2022/05/02 06:03:24;;;;;;;6.53;4.70;;;;;;;7.93;nan;101389.00;4956643;28;20114;-79
2022/05/02 06:05:51;;;;;;;6.23;4.53;;;;;;;8.20;nan;101390.81;4965355;28;20712;-80
2022/05/02 06:08:22;;;;;;;7.33;4.83;;;;;;;8.45;nan;101389.09;4964098;28;20102;-80
2022/05/02 06:10:50;;;;;;;7.00;4.73;;;;;;;8.67;nan;101390.84;4947878;28;20134;-80
2022/05/02 06:13:18;;;;;;;6.77;4.40;;;;;;;8.97;nan;101387.25;4978919;28;20094;-79
2022/05/02 06:18:53;;;;;;;6.30;4.50;;;;;;;10.21;nan;101384.03;4966429;28;20123;-81
2022/05/02 06:21:22;;;;;;;8.73;5.63;;;;;;;10.45;nan;101387.41;4964102;28;20103;-79
2022/05/02 06:23:52;;;;;;;8.23;4.82;;;;;;;10.73;nan;101382.75;4959520;29;20118;-79
2022/05/02 06:26:23;;;;;;;7.40;5.55;;;;;;;11.01;nan;101384.22;4935726;28;20580;-79
2022/05/02 06:28:51;;;;;;;6.68;5.80;;;;;;;11.53;nan;101373.91;4933603;28;20121;-80
2022/05/02 06:31:22;;;;;;;18.92;6.25;;;;;;;12.20;nan;101387.13;4978479;28;20078;-80
2022/05/02 06:33:50;;;;;;;7.82;5.55;;;;;;;12.56;nan;101383.00;4959986;28;20098;-78
2022/05/02 06:36:48;;;;;;;8.82;5.82;;;;;;;13.16;nan;101377.47;4956268;28;20497;-79
2022/05/02 06:39:44;;;;;;;8.80;5.55;;;;;;;13.89;nan;101375.06;4972333;28;20045;-79
2022/05/02 06:42:30;;;;;;;7.03;5.10;;;;;;;13.73;nan;101374.53;4965940;28;20045;-79
2022/05/02 06:45:25;;;;;;;8.75;4.85;;;;;;;13.68;nan;101371.97;4951344;28;20046;-78
2022/05/02 06:48:16;;;;;;;14.82;5.03;;;;;;;13.84;nan;101375.16;4969231;28;20039;-78
2022/05/02 06:50:46;;;;;;;17.23;5.50;;;;;;;14.09;nan;101373.69;4952370;29;20047;-79
2022/05/02 06:53:48;;;;;;;6.65;4.80;;;;;;;14.34;nan;101376.63;4950454;29;20046;-79
2022/05/02 06:56:21;;;;;;;44.50;8.15;;;;;;;14.52;nan;101371.78;4955865;28;20603;-79
2022/05/02 06:59:17;;;;;;;5.60;4.18;;;;;;;14.60;nan;101372.47;4946740;28;20065;-79
2022/05/02 07:01:49;;;;;;;6.28;4.03;;;;;;;14.86;nan;101370.00;4970634;28;20540;-78
2022/05/02 07:04:41;;;;;;;7.72;4.07;;;;;;;14.73;nan;101375.69;4948190;28;20039;-79
2022/05/02 07:07:43;;;;;;;5.82;4.15;;;;;;;13.95;nan;101374.91;4942431;28;20042;-79
2022/05/02 07:10:14;;;;;;;7.57;4.53;;;;;;;14.28;nan;101375.88;4960249;28;20054;-79
2022/05/02 07:12:53;;;;;;;5.22;3.72;;;;;;;14.69;nan;101374.88;4953817;28;20053;-78
2022/05/02 07:15:39;;;;;;;7.15;3.92;;;;;;;15.27;nan;101373.31;4970441;28;20045;-77
2022/05/02 07:18:27;;;;;;;4.72;3.30;;;;;;;15.79;nan;101374.44;4949253;28;20049;-77
2022/05/02 07:21:18;;;;;;;4.80;3.13;;;;;;;15.88;nan;101381.28;4965027;28;20526;-78
2022/05/02 07:24:07;;;;;;;4.63;3.70;;;;;;;15.58;nan;101377.75;4958130;28;20492;-78
2022/05/02 07:26:36;;;;;;;4.95;3.00;;;;;;;15.66;nan;101375.75;4916182;29;20400;-78
2022/05/02 07:29:04;;;;;;;5.60;3.25;;;;;;;15.91;nan;101373.22;4945525;29;20045;-78
2022/05/02 07:31:32;;;;;;;4.28;2.75;;;;;;;16.00;nan;101371.13;4934675;29;20045;-78
2022/05/02 07:34:01;;;;;;;4.72;2.97;;;;;;;15.85;nan;101368.06;4941193;29;20031;-79
2022/05/02 07:36:31;;;;;;;4.50;2.75;;;;;;;16.39;nan;101368.06;4953643;28;20038;-79
2022/05/02 07:39:01;;;;;;;4.15;2.80;;;;;;;16.55;nan;101365.78;4953270;28;20050;-78
2022/05/02 07:41:29;;;;;;;3.55;3.08;;;;;;;16.52;nan;101373.91;4951779;28;20043;-79
2022/05/02 07:43:59;;;;;;;17.17;4.50;;;;;;;16.82;nan;101361.34;4953826;28;20045;-79
2022/05/02 07:46:29;;;;;;;12.68;4.03;;;;;;;16.96;nan;101363.50;4965511;28;20049;-78
2022/05/02 07:48:58;;;;;;;5.10;2.53;;;;;;;16.81;nan;101368.44;4956184;28;20046;-78
2022/05/02 07:51:26;;;;;;;4.95;3.03;;;;;;;16.11;nan;101367.25;4972757;28;20042;-78
2022/05/02 07:53:53;;;;;;;3.30;2.78;;;;;;;16.09;nan;101375.31;4972188;28;20039;-78
2022/05/02 07:56:26;;;;;;;4.68;2.60;;;;;;;16.29;nan;101377.31;4973643;28;20045;-78
2022/05/02 07:58:55;;;;;;;6.32;3.15;;;;;;;16.44;nan;101367.94;4970827;28;20057;-78
2022/05/02 08:01:23;;;;;;;6.30;3.30;;;;;;;16.72;nan;101367.91;4961870;28;20037;-78
2022/05/02 08:03:52;;;;;;;5.20;3.22;;;;;;;16.47;nan;101376.69;4970094;28;20525;-78
2022/05/02 08:06:40;;;;;;;3.47;2.85;;;;;;;16.37;nan;101375.28;4965479;28;20048;-78
2022/05/02 08:09:24;;;;;;;4.50;2.80;;;;;;;16.47;nan;101373.16;4979077;28;20034;-78
2022/05/02 08:12:03;;;;;;;3.38;2.50;;;;;;;16.76;nan;101364.22;4973427;28;20076;-78
2022/05/02 08:15:07;;;;;;;2.58;1.95;;;;;;;16.69;nan;101366.22;4975782;28;20047;-79
2022/05/02 08:17:56;;;;;;;4.50;2.42;;;;;;;16.46;nan;101368.75;4989951;28;20506;-78
2022/05/02 08:20:56;;;;;;;3.80;2.60;;;;;;;16.52;nan;101357.88;4972554;28;20048;-79
2022/05/02 08:27:16;;;;;;;4.30;2.65;;;;;;;16.56;nan;101356.84;4991913;28;20034;-78
2022/05/02 08:30:03;;;;;;;4.28;2.67;;;;;;;16.45;nan;101351.88;4984910;28;20038;-78
2022/05/02 08:32:50;;;;;;;4.82;2.65;;;;;;;16.48;nan;101350.91;4988540;28;20042;-78
2022/05/02 08:35:31;;;;;;;5.05;2.40;;;;;;;16.84;nan;101362.16;4989008;28;20523;-78
2022/05/02 08:38:18;;;;;;;12.40;3.75;;;;;;;16.90;nan;101353.94;4970065;28;20046;-78
2022/05/02 08:41:10;;;;;;;4.10;2.42;;;;;;;16.72;nan;101350.09;4976102;28;20043;-77
2022/05/02 08:44:08;;;;;;;5.53;2.60;;;;;;;16.88;nan;101350.44;4956273;28;20039;-78
2022/05/02 08:46:38;;;;;;;4.38;2.72;;;;;;;16.96;nan;101352.81;4957594;28;20034;-78
2022/05/02 08:49:38;;;;;;;4.28;2.95;;;;;;;17.10;nan;101345.19;4973425;28;20043;-78
2022/05/02 08:52:11;;;;;;;3.70;2.30;;;;;;;17.19;nan;101344.00;4979791;28;20045;-78
2022/05/02 08:54:53;;;;;;;4.05;2.58;;;;;;;17.01;nan;101329.53;4975064;28;20663;-79
2022/05/02 08:57:35;;;;;;;3.97;2.30;;;;;;;17.08;nan;101342.59;4994150;28;20046;-79
2022/05/02 09:00:09;;;;;;;5.55;2.90;;;;;;;16.84;nan;101336.34;4984712;28;20030;-79
2022/05/02 09:02:51;;;;;;;4.35;2.90;;;;;;;16.78;nan;101338.34;4962083;28;20042;-78
2022/05/02 09:05:37;;;;;;;3.58;2.28;;;;;;;17.44;nan;101335.00;4992503;28;20043;-78
2022/05/02 09:08:40;;;;;;;7.47;3.08;;;;;;;17.41;nan;101332.44;4975590;28;20522;-78
2022/05/02 09:11:33;;;;;;;4.88;3.78;;;;;;;17.69;nan;101324.22;4975964;28;20038;-78
2022/05/02 09:14:38;;;;;;;3.22;2.67;;;;;;;18.13;nan;101328.75;4992509;28;20683;-78
2022/05/02 09:17:19;;;;;;;4.40;3.30;;;;;;;17.76;nan;101319.53;4984545;28;20041;-79
2022/05/02 09:20:18;;;;;;;4.75;2.90;;;;;;;17.81;nan;101320.22;4992107;28;20057;-78
2022/05/02 09:23:22;;;;;;;4.65;3.10;;;;;;;18.36;nan;101320.63;4972259;28;20037;-78
2022/05/02 09:26:22;;;;;;;39.30;7.55;;;;;;;18.77;nan;101310.00;4974002;28;20051;-78
2022/05/02 09:29:07;;;;;;;5.47;4.25;;;;;;;18.53;nan;101312.75;4971033;28;20045;-78
2022/05/02 09:31:46;;;;;;;4.75;3.42;;;;;;;18.09;nan;101305.75;4972837;28;20069;-79
2022/05/02 09:34:33;;;;;;;5.45;3.25;;;;;;;18.52;nan;101311.03;4972655;28;20039;-79
2022/05/02 09:37:12;;;;;;;6.88;4.03;;;;;;;18.43;nan;101298.03;4956363;28;20407;-79
2022/05/02 09:39:53;;;;;;;6.10;3.58;;;;;;;18.43;nan;101294.50;4955930;28;20043;-79
2022/05/02 09:42:29;;;;;;;6.32;3.63;;;;;;;18.94;nan;101295.84;4955330;28;20049;-79
2022/05/02 09:51:08;;;;;;;10.98;4.40;;;;;;;19.00;nan;101269.66;4960506;28;20045;-79
2022/05/02 09:53:35;;;;;;;7.43;2.90;;;;;;;19.57;nan;101275.91;4956574;28;20039;-80
2022/05/02 09:56:40;;;;;;;6.85;3.35;;;;;;;19.05;nan;101281.03;4966355;28;20073;-79
2022/05/02 09:59:09;;;;;;;5.50;3.30;;;;;;;19.43;nan;101273.03;4958008;28;20035;-79
2022/05/02 10:01:45;;;;;;;4.65;3.10;;;;;;;18.88;nan;101269.34;4954911;28;20039;-79
2022/05/02 10:04:31;;;;;;;5.43;3.25;;;;;;;19.19;nan;101264.31;4953780;28;20045;-80
2022/05/02 10:07:05;;;;;;;4.15;3.22;;;;;;;19.61;nan;101249.84;4975201;28;20035;-79
2022/05/02 10:09:59;;;;;;;5.00;3.30;;;;;;;20.42;nan;101249.28;4966924;28;20515;-80
2022/05/02 10:12:49;;;;;;;4.75;3.25;;;;;;;21.01;nan;101249.78;4952092;28;20045;-80
2022/05/02 10:15:47;;;;;;;4.93;3.60;;;;;;;19.88;nan;101253.84;4954014;28;20031;-80
2022/05/02 10:18:15;;;;;;;6.43;4.35;;;;;;;20.40;nan;101256.56;4955797;28;20376;-78
2022/05/02 10:21:20;;;;;;;4.30;3.30;;;;;;;21.11;nan;101242.09;4979512;28;20042;-81
2022/05/02 10:24:19;;;;;;;5.47;4.53;;;;;;;20.77;nan;101235.88;4959798;28;20035;-79
2022/05/02 10:27:13;;;;;;;4.90;3.65;;;;;;;20.67;nan;101231.94;4968722;28;20049;-80
2022/05/02 10:29:53;;;;;;;5.85;4.10;;;;;;;20.15;nan;101234.63;4945246;29;20532;-80
2022/05/02 10:32:28;;;;;;;4.35;3.95;;;;;;;20.41;nan;101233.28;4951999;28;20039;-80
2022/05/02 10:34:59;;;;;;;4.70;3.75;;;;;;;20.35;nan;101223.75;4952303;28;20035;-80
2022/05/02 10:37:34;;;;;;;5.10;3.60;;;;;;;20.89;nan;101226.28;4942162;28;20039;-80
2022/05/02 10:40:10;;;;;;;5.80;3.47;;;;;;;21.44;nan;101213.38;4954809;28;20065;-80
2022/05/02 10:42:43;;;;;;;4.32;3.28;;;;;;;21.85;nan;101216.34;4970172;28;20581;-79
2022/05/02 10:45:10;;;;;;;6.95;3.45;;;;;;;22.04;nan;101202.69;4955672;28;20039;-80
2022/05/02 10:48:00;;;;;;;9.07;4.35;;;;;;;21.83;nan;101210.19;5005989;23;20054;-80
2022/05/02 10:50:31;;;;;;;5.15;3.50;;;;;;;21.93;nan;101199.75;4968108;28;20114;-79
2022/05/02 10:53:36;;;;;;;19.02;5.47;;;;;;;21.74;nan;101193.72;4966582;28;20125;-80
2022/05/02 10:56:06;;;;;;;4.45;3.38;;;;;;;21.40;nan;101200.19;4955582;28;20063;-78
2022/05/02 10:58:37;;;;;;;5.47;4.38;;;;;;;21.07;nan;101190.34;4985345;28;20078;-80
2022/05/02 11:01:08;;;;;;;5.78;4.13;;;;;;;20.86;nan;101188.88;4970270;28;20085;-80
2022/05/02 11:03:46;;;;;;;5.63;4.10;;;;;;;20.46;nan;101188.31;4997343;28;20094;-80
2022/05/02 11:06:56;;;;;;;8.90;4.28;;;;;;;19.31;nan;101191.41;5004216;28;20066;-79
2022/05/02 11:10:09;;;;;;;5.47;4.20;;;;;;;19.26;nan;101187.22;4979844;28;20110;-79
2022/05/02 11:12:42;;;;;;;4.60;3.83;;;;;;;20.02;nan;101183.44;5001055;28;20097;-79
2022/05/02 11:15:24;;;;;;;4.95;4.45;;;;;;;20.31;nan;101183.72;4987479;28;20091;-81
2022/05/02 11:21:32;;;;;;;;;;;;;;;20.31;nan;101178.34;4983200;28;20577;-78
2022/05/02 11:25:06;;;;;;;6.15;4.18;;;;;;;21.02;nan;101168.22;4985789;28;19950;-80
2022/05/02 11:28:01;;;;;;;5.60;4.25;;;;;;;20.54;nan;101167.31;4983357;28;20503;-79
2022/05/02 11:30:28;;;;;;;6.78;4.38;;;;;;;19.79;nan;101173.88;4986229;28;20066;-79
2022/05/02 11:33:12;;;;;;;6.50;4.15;;;;;;;19.82;nan;101162.97;4944323;28;20110;-79
2022/05/02 11:35:46;;;;;;;6.05;4.50;;;;;;;20.40;nan;101162.63;4979956;28;20591;-81
2022/05/02 11:38:33;;;;;;;6.45;4.45;;;;;;;19.78;nan;101171.28;4983146;28;20453;-81
2022/05/02 11:41:18;;;;;;;7.45;4.82;;;;;;;19.60;nan;101160.53;4985574;28;20078;-81
2022/05/02 11:43:49;;;;;;;5.85;4.93;;;;;;;19.94;nan;101156.16;4953098;28;20138;-79
2022/05/02 11:46:22;;;;;;;7.28;4.57;;;;;;;20.16;nan;101154.06;4968240;28;20599;-80
2022/05/02 11:49:09;;;;;;;7.05;4.90;;;;;;;20.12;nan;101147.13;4970350;28;20086;-80
2022/05/02 11:51:44;;;;;;;6.80;5.00;;;;;;;18.85;nan;101147.22;4982354;28;20118;-82
2022/05/02 11:54:24;;;;;;;5.82;4.20;;;;;;;18.57;nan;101144.88;4969471;28;20126;-80
2022/05/02 11:57:17;;;;;;;5.47;4.00;;;;;;;18.50;nan;101151.50;4975344;28;20133;-80
2022/05/02 12:00:05;;;;;;;5.75;4.30;;;;;;;19.28;nan;101143.34;4970224;28;20106;-81
2022/05/02 12:03:16;;;;;;;6.00;4.97;;;;;;;20.04;nan;101140.44;4974018;28;20266;-81
2022/05/02 12:06:04;;;;;;;7.80;4.90;;;;;;;19.89;nan;101136.72;4966282;29;20122;-82
2022/05/02 12:08:34;;;;;;;5.88;4.75;;;;;;;19.72;nan;101134.06;4958168;28;20114;-81
2022/05/02 12:11:09;;;;;;;5.95;4.50;;;;;;;19.62;nan;101122.94;4974079;28;20075;-81
2022/05/02 12:13:47;;;;;;;6.65;3.95;;;;;;;20.31;nan;101122.88;4983828;28;20098;-81
2022/05/02 12:16:15;;;;;;;6.07;4.18;;;;;;;20.50;nan;101118.28;4986686;28;20103;-82
2022/05/02 12:18:46;;;;;;;6.32;4.35;;;;;;;20.60;nan;101124.03;4987542;28;20063;-81
2022/05/02 12:21:33;;;;;;;6.45;4.70;;;;;;;20.60;nan;101121.34;4981158;28;20130;-82
2022/05/02 12:24:03;;;;;;;4.90;4.30;;;;;;;20.58;nan;101112.50;4984201;28;20388;-80
2022/05/02 12:26:33;;;;;;;5.68;3.97;;;;;;;19.79;nan;101132.78;4986488;28;20121;-82
2022/05/02 12:29:04;;;;;;;5.90;4.68;;;;;;;19.88;nan;101132.31;4978498;28;20110;-81
2022/05/02 12:31:34;;;;;;;5.68;4.78;;;;;;;19.63;nan;101121.97;4985923;28;20178;-81
2022/05/02 12:34:06;;;;;;;6.90;4.22;;;;;;;19.81;nan;101112.13;4950223;28;20098;-83
2022/05/02 12:36:52;;;;;;;6.18;4.47;;;;;;;19.72;nan;101104.56;4974694;28;20513;-80
2022/05/02 12:39:34;;;;;;;6.43;4.05;;;;;;;19.67;nan;101110.16;4969657;28;20106;-82
2022/05/02 12:42:18;;;;;;;6.63;4.30;;;;;;;20.35;nan;101108.34;4969361;28;20078;-82
2022/05/02 12:45:02;;;;;;;5.55;4.18;;;;;;;20.83;nan;101103.94;4985671;28;20090;-83
2022/05/02 12:47:47;;;;;;;5.88;4.60;;;;;;;20.70;nan;101097.53;4994086;28;20133;-81
2022/05/02 12:50:17;;;;;;;5.32;3.80;;;;;;;20.10;nan;101106.13;4954240;28;20121;-80
2022/05/02 12:52:49;;;;;;;5.38;4.00;;;;;;;19.48;nan;101098.59;4959891;28;20126;-83